createdAt,value
2023-02-23T00:04:04.686Z,9.00
2023-02-23T00:09:13.902Z,9.10
2023-02-23T00:14:17.192Z,9.00
2023-02-23T00:19:24.667Z,9.00
2023-02-23T00:24:28.542Z,9.00
2023-02-23T00:29:38.475Z,9.10
2023-02-23T00:34:43.279Z,9.10
2023-02-23T00:39:46.790Z,9.10
2023-02-23T00:44:50.206Z,9.10
2023-02-23T00:49:54.841Z,9.10
2023-02-23T00:54:58.072Z,9.20
2023-02-23T01:00:01.383Z,9.10
2023-02-23T01:05:06.488Z,9.10
2023-02-23T01:10:19.529Z,9.10
2023-02-23T01:15:24.329Z,9.00
2023-02-23T01:20:29.098Z,9.00
2023-02-23T01:25:33.810Z,9.00
2023-02-23T01:30:37.266Z,8.90
2023-02-23T01:35:43.657Z,8.80
2023-02-23T01:40:47.402Z,8.80
2023-02-23T01:45:50.793Z,8.70
2023-02-23T01:50:59.911Z,8.70
2023-02-23T01:56:11.337Z,8.60
2023-02-23T02:01:15.429Z,8.60
2023-02-23T02:06:25.005Z,8.50
2023-02-23T02:11:36.294Z,8.40
2023-02-23T02:16:56.816Z,8.30
2023-02-23T02:22:21.023Z,8.20
2023-02-23T02:27:43.561Z,8.10
2023-02-23T02:33:27.462Z,8.10
2023-02-23T02:38:43.004Z,8.00
2023-02-23T02:43:56.818Z,7.90
2023-02-23T02:49:08.838Z,8.00
2023-02-23T02:54:22.671Z,8.00
2023-02-23T02:59:43.714Z,8.10
2023-02-23T03:05:04.876Z,8.30
2023-02-23T03:10:33.148Z,8.40
2023-02-23T03:16:06.765Z,8.50
2023-02-23T03:21:34.192Z,8.60
2023-02-23T03:27:02.444Z,8.70
2023-02-23T03:32:33.466Z,8.80
2023-02-23T03:37:58.565Z,8.90
2023-02-23T03:43:26.445Z,9.00
2023-02-23T03:48:48.371Z,9.10
2023-02-23T03:54:12.923Z,9.10
2023-02-23T03:59:39.226Z,9.20
2023-02-23T04:05:02.370Z,9.30
2023-02-23T04:10:24.688Z,9.40
2023-02-23T04:15:32.908Z,9.40
2023-02-23T04:20:36.139Z,9.40
2023-02-23T04:25:39.416Z,9.40
2023-02-23T04:30:44.382Z,9.40
2023-02-23T04:35:47.668Z,9.50
2023-02-23T04:40:51.026Z,9.50
2023-02-23T04:45:55.669Z,9.50
2023-02-23T04:50:58.945Z,9.50
2023-02-23T04:56:02.199Z,9.50
2023-02-23T05:01:08.175Z,9.50
2023-02-23T05:06:11.996Z,9.50
2023-02-23T05:11:15.606Z,9.50
2023-02-23T05:16:21.076Z,9.50
2023-02-23T05:21:25.060Z,9.50
2023-02-23T05:26:28.410Z,9.40
2023-02-23T05:31:33.107Z,9.40
2023-02-23T05:36:36.878Z,9.30
2023-02-23T05:41:40.244Z,9.20
2023-02-23T05:46:47.617Z,9.10
2023-02-23T05:51:51.584Z,9.10
2023-02-23T05:56:54.912Z,9.00
2023-02-23T06:01:59.584Z,8.90
2023-02-23T06:07:02.824Z,8.90
2023-02-23T06:12:06.468Z,8.90
2023-02-23T06:17:11.153Z,8.90
2023-02-23T06:22:14.409Z,8.90
2023-02-23T06:27:17.654Z,8.90
2023-02-23T06:32:22.325Z,9.00
2023-02-23T06:37:27.330Z,9.00
2023-02-23T06:42:30.645Z,9.00
2023-02-23T06:47:35.258Z,9.10
2023-02-23T06:52:39.013Z,9.20
2023-02-23T06:57:42.671Z,9.30
2023-02-23T07:02:47.841Z,9.40
2023-02-23T07:07:52.115Z,9.50
2023-02-23T07:12:55.733Z,9.60
2023-02-23T07:18:00.524Z,9.70
2023-02-23T07:23:04.761Z,9.80
2023-02-23T07:28:08.139Z,9.80
2023-02-23T07:33:12.830Z,9.90
2023-02-23T07:38:16.311Z,10.00
2023-02-23T07:43:21.430Z,10.20
2023-02-23T07:48:26.085Z,10.30
2023-02-23T07:53:29.635Z,10.50
2023-02-23T07:58:33.031Z,10.60
2023-02-23T08:03:38.811Z,10.80
2023-02-23T08:08:42.130Z,10.90
2023-02-23T08:13:45.408Z,11.00
2023-02-23T08:18:50.092Z,11.20
2023-02-23T08:23:53.538Z,11.40
2023-02-23T08:28:56.944Z,11.60
2023-02-23T08:34:01.588Z,11.80
2023-02-23T08:39:06.527Z,11.90
2023-02-23T08:44:10.118Z,12.10
2023-02-23T08:49:14.841Z,12.30
2023-02-23T08:54:18.334Z,12.60
2023-02-23T08:59:21.672Z,12.80
2023-02-23T09:04:26.614Z,12.90
2023-02-23T09:09:29.971Z,13.10
2023-02-23T09:14:41.692Z,13.30
2023-02-23T09:19:46.476Z,13.50
2023-02-23T09:24:49.773Z,13.60
2023-02-23T09:29:53.128Z,13.80
2023-02-23T09:34:57.849Z,14.10
2023-02-23T09:40:01.110Z,14.10
2023-02-23T09:45:21.731Z,14.10
2023-02-23T09:50:29.823Z,13.90
2023-02-23T09:55:33.803Z,13.90
2023-02-23T10:00:46.690Z,13.80
2023-02-23T10:06:01.278Z,13.80
2023-02-23T10:11:15.133Z,13.90
2023-02-23T10:16:25.117Z,13.90
2023-02-23T10:21:35.380Z,14.00
2023-02-23T10:26:44.411Z,14.20
2023-02-23T10:31:52.413Z,14.30
2023-02-23T10:37:01.783Z,14.50
2023-02-23T10:42:12.262Z,14.70
2023-02-23T10:47:19.356Z,14.80
2023-02-23T10:52:32.521Z,14.90
2023-02-23T10:57:40.226Z,15.00
2023-02-23T11:02:44.877Z,15.10
2023-02-23T11:07:49.583Z,15.20
2023-02-23T11:12:52.904Z,14.90
2023-02-23T11:17:57.842Z,14.80
2023-02-23T11:23:14.060Z,14.80
2023-02-23T11:28:22.764Z,14.90
2023-02-23T11:33:31.607Z,15.00
2023-02-23T11:38:36.227Z,15.10
2023-02-23T11:43:48.534Z,15.10
2023-02-23T11:48:55.290Z,15.40
2023-02-23T11:54:01.507Z,15.80
2023-02-23T11:59:08.444Z,16.00
2023-02-23T12:04:25.091Z,16.10
2023-02-23T12:09:33.977Z,16.20
2023-02-23T12:14:43.310Z,16.20
2023-02-23T12:19:50.546Z,16.20
2023-02-23T12:25:00.451Z,16.10
2023-02-23T12:30:13.211Z,16.20
2023-02-23T12:35:22.112Z,15.90
2023-02-23T12:40:29.584Z,15.70
2023-02-23T12:45:40.754Z,15.70
2023-02-23T12:50:48.273Z,15.60
2023-02-23T12:56:05.919Z,15.30
2023-02-23T13:01:14.676Z,15.20
2023-02-23T13:06:26.518Z,14.90
2023-02-23T13:11:45.471Z,14.80
2023-02-23T13:16:53.525Z,14.80
2023-02-23T13:22:04.766Z,14.70
2023-02-23T13:27:16.380Z,14.50
2023-02-23T13:32:23.898Z,14.40
2023-02-23T13:37:32.242Z,14.00
2023-02-23T13:42:45.423Z,14.00
2023-02-23T13:47:54.369Z,14.00
2023-02-23T13:53:04.772Z,14.10
2023-02-23T13:58:16.566Z,14.20
2023-02-23T14:03:24.490Z,14.20
2023-02-23T14:08:32.448Z,14.20
2023-02-23T14:13:42.947Z,14.20
2023-02-23T14:19:05.365Z,14.10
2023-02-23T14:24:21.663Z,14.00
2023-02-23T14:29:29.455Z,14.00
2023-02-23T14:34:49.040Z,13.90
2023-02-23T14:39:54.552Z,13.80
2023-02-23T14:44:59.644Z,13.90
2023-02-23T14:50:03.827Z,13.90
2023-02-23T14:55:17.641Z,13.90
2023-02-23T15:00:25.820Z,13.90
2023-02-23T15:05:31.429Z,13.80
2023-02-23T15:10:38.358Z,13.70
2023-02-23T15:15:47.412Z,13.50
2023-02-23T15:20:51.356Z,13.30
2023-02-23T15:25:54.797Z,13.20
2023-02-23T15:31:04.370Z,13.10
2023-02-23T15:36:12.503Z,13.00
2023-02-23T15:41:25.138Z,12.90
2023-02-23T15:46:32.757Z,12.80
2023-02-23T15:51:38.933Z,12.80
2023-02-23T15:56:47.003Z,12.70
2023-02-23T16:01:55.376Z,12.50
2023-02-23T16:07:12.981Z,12.20
2023-02-23T16:12:22.463Z,11.80
2023-02-23T16:17:34.860Z,11.60
2023-02-23T16:22:40.920Z,11.50
2023-02-23T16:27:46.780Z,11.40
2023-02-23T16:33:06.055Z,11.40
2023-02-23T16:38:14.773Z,11.40
2023-02-23T16:43:18.132Z,11.30
2023-02-23T16:48:24.232Z,11.30
2023-02-23T16:53:27.512Z,11.20
2023-02-23T16:58:32.668Z,11.10
2023-02-23T17:03:43.752Z,11.00
2023-02-23T17:08:58.467Z,10.90
2023-02-23T17:14:01.981Z,10.90
2023-02-23T17:19:07.252Z,10.90
2023-02-23T17:24:10.716Z,10.80
2023-02-23T17:29:14.018Z,10.80
2023-02-23T17:34:18.864Z,10.80
2023-02-23T17:39:22.318Z,10.80
2023-02-23T17:44:25.611Z,10.70
2023-02-23T17:49:30.495Z,10.70
2023-02-23T17:54:33.948Z,10.70
2023-02-23T17:59:37.249Z,10.60
2023-02-23T18:04:42.463Z,10.60
2023-02-23T18:09:50.154Z,10.60
2023-02-23T18:14:53.578Z,10.50
2023-02-23T18:19:58.252Z,10.50
2023-02-23T18:25:01.782Z,10.50
2023-02-23T18:30:05.615Z,10.50
2023-02-23T18:35:11.480Z,10.60
2023-02-23T18:40:21.509Z,10.60
2023-02-23T18:45:24.995Z,10.50
2023-02-23T18:50:30.023Z,10.50
2023-02-23T18:55:33.606Z,10.40
2023-02-23T19:00:40.227Z,10.30
2023-02-23T19:05:50.583Z,10.10
2023-02-23T19:10:54.194Z,10.10
2023-02-23T19:15:59.350Z,9.90
2023-02-23T19:21:04.470Z,9.80
2023-02-23T19:26:08.490Z,9.70
2023-02-23T19:31:15.901Z,9.60
2023-02-23T19:36:22.721Z,9.50
2023-02-23T19:41:25.995Z,9.50
2023-02-23T19:46:29.420Z,9.50
2023-02-23T19:51:34.424Z,9.50
2023-02-23T19:56:38.099Z,9.50
2023-02-23T20:01:43.618Z,9.60
2023-02-23T20:06:48.265Z,9.50
2023-02-23T20:11:51.501Z,9.50
2023-02-23T20:16:54.789Z,9.40
2023-02-23T20:21:59.430Z,9.30
2023-02-23T20:27:02.770Z,9.20
2023-02-23T20:32:06.792Z,9.10
2023-02-23T20:37:11.555Z,9.00
2023-02-23T20:42:14.943Z,8.80
2023-02-23T20:47:18.404Z,8.70
2023-02-23T20:52:23.094Z,8.70
2023-02-23T20:57:26.883Z,8.60
2023-02-23T21:02:30.565Z,8.60
2023-02-23T21:07:35.473Z,8.60
2023-02-23T21:12:39.124Z,8.60
2023-02-23T21:17:43.096Z,8.70
2023-02-23T21:22:49.355Z,8.60
2023-02-23T21:27:54.197Z,8.60
2023-02-23T21:32:59.632Z,8.60
2023-02-23T21:38:04.236Z,8.60
2023-02-23T21:43:09.277Z,8.60
2023-02-23T21:48:12.652Z,8.60
2023-02-23T21:53:17.591Z,8.50
2023-02-23T21:58:20.832Z,8.50
2023-02-23T22:03:27.283Z,8.50
2023-02-23T22:08:31.983Z,8.40
2023-02-23T22:13:35.280Z,8.40
2023-02-23T22:18:39.336Z,8.30
2023-02-23T22:23:46.982Z,8.30
2023-02-23T22:28:50.226Z,8.20
2023-02-23T22:33:53.464Z,8.10
2023-02-23T22:39:00.387Z,8.10
2023-02-23T22:44:03.710Z,8.00
2023-02-23T22:49:07.114Z,7.90
2023-02-23T22:54:13.301Z,7.90
2023-02-23T22:59:17.682Z,7.90
2023-02-23T23:04:22.405Z,7.90
2023-02-23T23:09:28.605Z,7.80
2023-02-23T23:14:32.657Z,7.80
2023-02-23T23:19:39.064Z,7.90
2023-02-23T23:24:49.039Z,8.00
2023-02-23T23:29:52.325Z,8.10
2023-02-23T23:34:57.438Z,8.10
2023-02-23T23:40:05.585Z,8.10
2023-02-23T23:45:10.693Z,7.90
2023-02-23T23:50:16.302Z,7.90
2023-02-23T23:55:20.708Z,7.90
